Friday, February 23, 2018, 6:37 PM GMT
Back to Local

CWRZ, Cap D'Espoir , Que.

Location: , , Canada Lat: 48.417
Local Time: 6:37 PM GMT (18:37 GMT) Lon: -64.317
Time Zone: GMT Elev: 52 ft

Show me the last for .
Show Coded

Time T Td Feel RH Dir Speed Gust Alt SLP Vis Weather Sky Remarks
2018-02-23 18:00 20 11 7 67 210° 14 - - 30.49 0 Peak wind: 21 mph (19 kts) from 210° at 11 min
Pressure falling rapidly
2018-02-23 17:00 18 8 2 62 210° 18 - - 30.55 0 Peak wind: 21 mph (19 kts) from 210° at 56 min
2018-02-23 16:00 18 6 6 57 230° 10 - - 30.58 0 None
2018-02-23 15:00 16 3 5 55 240° 8 - - 30.61 0 None
2018-02-23 14:00 14 1 3 55 260° 8 - - 30.64 0 None
2018-02-23 13:00 12 1 2 61 280° 7 - - 30.65 0 None
2018-02-23 12:00 8 0 -6 66 290° 10 - - 30.65 0 None
2018-02-23 11:00 9 0 -4 67 290° 9 - - 30.63 0 None
2018-02-23 10:00 7 -1 -6 69 290° 9 - - 30.64 0 None
2018-02-23 09:00 6 1 -9 79 270° 10 - - 30.63 0 None
2018-02-23 08:00 8 -1 -5 67 270° 8 - - 30.63 0 None
2018-02-23 07:00 10 0 -4 64 280° 9 - - 30.64 0 None
2018-02-23 06:00 9 1 -4 67 290° 9 - - - 0 None
2018-02-23 05:00 9 0 -5 66 290° 10 - - - 0 None
2018-02-23 04:00 10 0 -5 65 290° 12 - - - 0 None
2018-02-23 03:00 11 1 -2 61 280° 10 - - - 0 None
2018-02-23 02:00 13 1 2 58 300° 7 - - - 0 None
2018-02-23 01:00 13 6 3 73 310° 7 - - - 0 None
2018-02-23 00:00 15 11 8 81 360° 5 - - - 0 None
2018-02-22 23:00 15 10 - 80 110° 2 - - - 0 None
2018-02-22 22:00 17 11 9 77 100° 6 - - - 0 None
2018-02-22 21:00 18 11 6 75 80° 10 - - - 0 None
2018-02-22 20:00 18 12 4 75 80° 14 - - - 0 None
2018-02-22 19:00 20 11 10 66 100° 8 - - - 0 None

Support USWX by starting your Amazon purchase here.